Klamath Falls Airport
KLMT : now visible

Airfield :











YOU CAN JOIN US ON...

 
LOGIN :

Register | Disclaimer

   EN    FR    IT 

 









Legend :    VFR   Marginal VFR   IFR   Intensive IFR   Very Intensive IFR
Visi :
Ceiling :
>= 8 km
>= 3000ft
5 to 8 km
1000 to 3000 ft
1500m to 5 km
500 to 1000 ft
800 to 1500m
200 to 500 ft
< 800m
< 200 ft
Symbols :   Thunderstorms  Fog  Heavy snow  Heavy precipitations  Wind > 20 kt






- Airport Elevation : 4095 ft
- IATA code : LMT


KLMT - Klamath Falls

CURRENT METAR :
  • 301853Z 00000KT 10SM CLR 25/04 A3008 RMK AO2 SLP149 T02500044

EXPIRED METARs :
  • 301753Z VRB03KT 10SM CLR 23/05 A3010 RMK AO2 SLP151 T02330050 10233 20056 58005
  • 301653Z 00000KT 10SM CLR 21/05 A3011 RMK AO2 SLP155 T02110050

TAF KLMT
Valid from the 30 at 18:00 until the 01 at 18:00 UTC


301722Z 3018/0118 VRB03KT P6SM SKC
FM302200 28010KT P6SM SKC
FM010000 33012G20KT P6SM SKC
FM010400 32008KT P6SM SKC
FM010700 VRB03KT P6SM SKC
KZSE FIR / North America



MET'MAP, your aeronautical weather chart ! - Copyright ORBIFLY December 2007 - Disclaimer

ORBIFLY MET'MAP TEAM :

Programming & Development : Alexandra Zaïnal
Original concept : Baudouin d'Aumeries
Technical & hardware support : Manuel Goepfert
Assistance : Marc-Olivier Méhu




SOURCES & CREDITS :

   NOAA       Earth
Advisory